Time;durP1;ratioP1;P1;durP2;ratioP2;P2;SDS_P1;SDS_P2;PMS_P1;PMS_P2;Temp;Humidity;BMP_temperature;BMP_pressure;BME280_temperature;BME280_humidity;BME280_pressure;Samples;Min_cycle;Max_cycle;Signal;HPM_P1;HPM_P2
2022/12/05 00:01:14;;;;;;;14.02;8.68;;;;;;;-3.65;99.25;103304.19;5032796;28;20440;-75
2022/12/05 00:03:39;;;;;;;14.93;9.88;;;;;;;-3.61;99.17;103305.91;5032758;28;20037;-74
2022/12/05 00:06:05;;;;;;;14.73;10.23;;;;;;;-3.60;99.07;103300.69;5014923;28;20116;-74
2022/12/05 00:08:30;;;;;;;22.00;9.93;;;;;;;-3.51;98.73;103307.56;5014761;28;20099;-72
2022/12/05 00:10:56;;;;;;;15.73;10.07;;;;;;;-3.48;98.37;103302.31;5032523;28;20040;-72
2022/12/05 00:13:21;;;;;;;16.50;9.77;;;;;;;-3.49;98.40;103304.06;5015373;28;20045;-74
2022/12/05 00:15:47;;;;;;;14.57;9.23;;;;;;;-3.51;98.44;103311.03;5014927;28;20354;-72
2022/12/05 00:18:13;;;;;;;16.63;10.17;;;;;;;-3.57;98.31;103294.56;5027767;28;20043;-73
2022/12/05 00:20:47;;;;;;;16.90;9.67;;;;;;;-3.53;98.81;103299.75;5012779;28;20034;-73
2022/12/05 00:23:12;;;;;;;15.57;9.70;;;;;;;-3.50;98.57;103299.72;5017535;28;20034;-72
2022/12/05 00:25:38;;;;;;;18.70;10.77;;;;;;;-3.48;98.05;103305.78;5019653;28;20037;-73
2022/12/05 00:28:04;;;;;;;19.75;10.70;;;;;;;-3.54;98.39;103295.41;5024679;28;20381;-71
2022/12/05 00:30:29;;;;;;;16.00;9.30;;;;;;;-3.48;98.71;103302.31;5028209;28;20033;-70
2022/12/05 00:32:56;;;;;;;17.90;9.80;;;;;;;-3.55;97.42;103285.88;5017172;28;20026;-74
2022/12/05 00:35:22;;;;;;;14.82;9.38;;;;;;;-3.54;97.59;103289.34;5013525;28;20030;-74
2022/12/05 00:37:47;;;;;;;15.87;9.60;;;;;;;-3.57;97.78;103279.81;5013070;28;20076;-75
2022/12/05 00:40:13;;;;;;;17.03;10.87;;;;;;;-3.63;97.44;103281.59;5012724;28;20076;-72
2022/12/05 00:42:38;;;;;;;14.70;8.80;;;;;;;-3.64;97.99;103288.56;5012791;28;20026;-71
2022/12/05 00:45:04;;;;;;;15.53;9.37;;;;;;;-3.70;97.92;103291.19;5013007;28;20421;-73
2022/12/05 00:47:34;;;;;;;15.35;10.93;;;;;;;-3.73;98.51;103270.41;5012973;28;20045;-75
2022/12/05 00:49:59;;;;;;;14.23;10.68;;;;;;;-3.62;97.99;103281.59;5012731;28;20073;-72
2022/12/05 00:52:26;;;;;;;14.67;9.33;;;;;;;-3.60;98.21;103284.19;5014055;28;20050;-74
2022/12/05 00:54:51;;;;;;;17.52;8.73;;;;;;;-3.57;97.92;103279.81;5016460;28;20347;-71
2022/12/05 00:57:16;;;;;;;15.93;10.47;;;;;;;-3.41;97.80;103284.94;5016514;28;20044;-72
2022/12/05 00:59:42;;;;;;;17.50;9.37;;;;;;;-3.42;96.87;103281.47;5016474;28;20034;-70
2022/12/05 01:02:07;;;;;;;15.63;9.13;;;;;;;-3.44;96.99;103281.47;5016182;28;20030;-70
2022/12/05 01:04:33;;;;;;;15.83;11.43;;;;;;;-3.38;97.35;103275.34;5016130;28;20028;-72
2022/12/05 01:06:58;;;;;;;17.63;10.87;;;;;;;-3.47;97.13;103264.97;5016010;28;20076;-74
2022/12/05 01:09:24;;;;;;;16.23;9.73;;;;;;;-3.46;96.14;103269.34;5016025;28;20025;-70
2022/12/05 01:11:52;;;;;;;15.85;11.60;;;;;;;-3.48;96.92;103271.06;5016193;28;20041;-72
2022/12/05 01:14:21;;;;;;;13.05;8.77;;;;;;;-3.48;97.65;103269.31;5016176;28;20069;-74
2022/12/05 01:17:12;;;;;;;13.45;8.80;;;;;;;-3.44;96.62;103268.44;5018143;28;20129;-75
2022/12/05 01:19:37;;;;;;;14.40;9.17;;;;;;;-3.35;97.15;103277.06;5018144;28;20134;-74
2022/12/05 01:22:03;;;;;;;14.93;9.90;;;;;;;-3.29;96.50;103271.78;5035566;28;20045;-73
2022/12/05 01:24:29;;;;;;;14.70;10.00;;;;;;;-3.39;95.95;103257.13;5035653;28;20113;-72
2022/12/05 01:26:54;;;;;;;16.70;9.63;;;;;;;-3.28;96.76;103271.78;5035364;28;20381;-71
2022/12/05 01:29:22;;;;;;;16.93;10.10;;;;;;;-3.20;96.91;103280.38;5035565;28;20025;-71
2022/12/05 01:31:48;;;;;;;15.25;10.25;;;;;;;-3.22;97.19;103268.25;5035261;28;20060;-73
2022/12/05 01:34:15;;;;;;;15.10;9.20;;;;;;;-3.25;97.37;103266.53;5035397;28;20103;-73
2022/12/05 01:36:41;;;;;;;14.73;10.40;;;;;;;-3.32;97.57;103274.44;5035627;28;20029;-72
2022/12/05 01:39:08;;;;;;;18.88;10.13;;;;;;;-3.38;98.13;103259.72;5035463;28;20033;-72
2022/12/05 01:41:37;;;;;;;19.52;9.70;;;;;;;-3.31;98.08;103266.59;5035589;28;20126;-73
2022/12/05 01:44:03;;;;;;;17.38;9.82;;;;;;;-3.26;98.21;103263.94;5035409;28;20030;-71
2022/12/05 01:46:31;;;;;;;18.30;11.37;;;;;;;-3.45;97.66;103242.41;5035551;28;20036;-70
2022/12/05 01:49:08;;;;;;;15.52;10.43;;;;;;;-3.34;97.52;103269.22;5035649;28;20029;-71
2022/12/05 01:51:37;;;;;;;18.17;10.10;;;;;;;-3.35;98.42;103261.44;5035561;28;20045;-72
2022/12/05 01:54:03;;;;;;;;;;;;;;;-3.25;97.93;103261.31;5035288;28;20536;-72
2022/12/05 01:56:31;;;;;;;13.70;9.88;;;;;;;-3.41;97.00;103251.06;5035150;28;19916;-71
2022/12/05 01:58:59;;;;;;;10.00;7.35;;;;;;;-3.36;98.16;103254.47;5035363;28;20029;-73
2022/12/05 02:01:24;;;;;;;16.42;10.98;;;;;;;-3.41;97.72;103246.72;5045911;28;20030;-70
2022/12/05 02:03:54;;;;;;;17.37;10.83;;;;;;;-3.32;97.68;103253.56;5040997;28;20028;-72
2022/12/05 02:06:21;;;;;;;16.83;11.13;;;;;;;-3.37;96.89;103235.38;5035183;28;20060;-73
2022/12/05 02:08:48;;;;;;;15.88;9.75;;;;;;;-3.49;96.93;103225.91;5035064;28;20083;-70
2022/12/05 02:11:14;;;;;;;16.05;9.95;;;;;;;-3.31;96.50;103242.28;5034810;28;20028;-73
2022/12/05 02:13:54;;;;;;;16.27;10.23;;;;;;;-3.25;97.45;103255.25;5034908;28;20038;-74
2022/12/05 02:17:01;;;;;;;14.50;10.25;;;;;;;-3.22;96.71;103250.88;5017239;28;20469;-69
2022/12/05 02:19:58;;;;;;;17.65;11.40;;;;;;;-3.46;96.28;103205.06;5029120;28;20489;-72
2022/12/05 02:22:57;;;;;;;17.73;11.35;;;;;;;-3.22;96.38;103250.00;5034589;28;20040;-73
2022/12/05 02:26:01;;;;;;;16.42;10.10;;;;;;;-3.17;96.96;103238.69;5034670;28;20029;-74
2022/12/05 02:28:59;;;;;;;13.80;9.48;;;;;;;-3.14;97.08;103240.41;5000247;28;20037;-72
2022/12/05 02:31:50;;;;;;;21.45;11.85;;;;;;;-3.09;96.24;103236.00;5034660;28;20076;-70
2022/12/05 02:34:26;;;;;;;16.02;10.40;;;;;;;-3.06;96.09;103232.50;5016928;28;20087;-72
2022/12/05 02:36:58;;;;;;;18.52;11.27;;;;;;;-2.93;96.40;103241.91;5034393;28;20053;-75
2022/12/05 02:39:47;;;;;;;22.55;12.00;;;;;;;-3.00;95.25;103229.81;5034286;28;20025;-73
2022/12/05 02:42:52;;;;;;;17.77;10.65;;;;;;;-3.03;94.98;103235.06;5034835;28;20072;-72
2022/12/05 02:45:22;;;;;;;19.38;12.45;;;;;;;-3.10;95.48;103223.84;5033853;28;20428;-73
2022/12/05 02:47:48;;;;;;;;;;;;;;;-3.02;95.75;103229.84;5035508;28;20036;-71
2022/12/05 02:50:20;;;;;;;17.92;10.77;;;;;;;-2.99;96.27;103227.19;5035161;28;19913;-72
2022/12/05 02:52:49;;;;;;;15.02;9.80;;;;;;;-3.00;95.82;103222.88;5035449;28;20037;-71
2022/12/05 02:55:17;;;;;;;19.03;9.97;;;;;;;-3.06;95.42;103201.22;5051917;28;20100;-73
2022/12/05 02:57:47;;;;;;;18.90;11.90;;;;;;;-2.87;95.74;103218.41;5058086;28;20051;-72
2022/12/05 03:00:13;;;;;;;18.55;12.15;;;;;;;-2.85;95.06;103206.22;5058532;28;20018;-72
2022/12/05 03:02:40;;;;;;;16.75;10.90;;;;;;;-2.87;95.42;103210.56;5057685;28;20031;-71
2022/12/05 03:05:28;;;;;;;16.17;10.57;;;;;;;-2.89;94.73;103207.09;5046215;28;20048;-72
2022/12/05 03:07:58;;;;;;;17.08;11.55;;;;;;;-2.96;94.62;103211.53;5029243;28;20381;-70
2022/12/05 03:10:28;;;;;;;20.70;12.48;;;;;;;-3.01;94.92;103197.69;5035913;28;20051;-70
2022/12/05 03:12:59;;;;;;;20.13;11.93;;;;;;;-3.02;94.76;103193.34;5016433;28;20037;-72
2022/12/05 03:15:33;;;;;;;18.42;10.77;;;;;;;-2.97;94.64;103207.19;5033203;28;20082;-73
2022/12/05 03:18:07;;;;;;;19.02;11.15;;;;;;;-2.96;94.61;103206.31;5033224;28;20057;-73
2022/12/05 03:20:40;;;;;;;18.08;13.23;;;;;;;-3.00;95.34;103209.81;5033439;28;20091;-70
2022/12/05 03:23:19;;;;;;;13.02;9.65;;;;;;;-2.96;94.57;103210.66;5033505;28;20067;-74
2022/12/05 03:26:26;;;;;;;24.35;13.55;;;;;;;-3.03;95.30;103202.03;5033602;28;20033;-71
2022/12/05 03:29:23;;;;;;;17.00;11.73;;;;;;;-3.03;94.92;103201.19;4992177;28;20034;-71
2022/12/05 03:32:19;;;;;;;19.08;12.20;;;;;;;-3.01;95.43;103191.59;5034760;28;20041;-72
2022/12/05 03:35:08;;;;;;;15.73;11.20;;;;;;;-2.99;95.35;103198.50;5050382;28;20009;-72
2022/12/05 03:37:58;;;;;;;17.73;12.57;;;;;;;-2.96;95.18;103197.63;5035872;28;20040;-72
2022/12/05 03:40:30;;;;;;;20.42;13.32;;;;;;;-2.91;95.43;103203.63;5016250;28;20051;-71
2022/12/05 03:43:08;;;;;;;18.00;10.82;;;;;;;-2.90;94.73;103195.81;5033185;28;20112;-73
2022/12/05 03:45:48;;;;;;;15.93;10.88;;;;;;;-2.86;95.09;103192.31;5033017;28;20056;-74
2022/12/05 03:48:38;;;;;;;17.13;10.65;;;;;;;-2.88;95.15;103196.69;5033054;28;20044;-74
2022/12/05 03:51:09;;;;;;;17.40;11.65;;;;;;;-2.96;95.23;103181.97;5032933;28;20384;-71
2022/12/05 03:53:41;;;;;;;16.65;10.98;;;;;;;-2.84;94.83;103200.97;5033195;28;20035;-77
2022/12/05 03:56:16;;;;;;;17.58;12.23;;;;;;;-2.86;95.01;103188.84;5032888;28;20366;-73
2022/12/05 03:58:56;;;;;;;20.27;12.25;;;;;;;-2.79;95.28;103187.00;5033363;28;20120;-74
2022/12/05 04:01:24;;;;;;;19.10;12.57;;;;;;;-2.76;94.68;103186.97;5033409;28;20025;-77
2022/12/05 04:03:55;;;;;;;17.88;9.50;;;;;;;-2.81;94.76;103179.22;5032856;28;20358;-74
2022/12/05 04:06:32;;;;;;;17.08;11.40;;;;;;;-2.84;95.33;103169.69;5032563;28;20022;-76
2022/12/05 04:09:08;;;;;;;17.95;12.10;;;;;;;-2.85;94.90;103167.94;5033041;28;20539;-74
2022/12/05 04:11:39;;;;;;;21.63;12.20;;;;;;;-2.85;95.21;103178.38;5032613;28;20034;-74
2022/12/05 04:14:13;;;;;;;18.33;11.45;;;;;;;-3.09;95.75;103141.28;5032447;28;20040;-74
2022/12/05 04:17:05;;;;;;;22.33;11.85;;;;;;;-2.83;95.45;103180.97;5032695;28;20412;-76
2022/12/05 04:22:28;;;;;;;16.63;11.90;;;;;;;-2.88;95.96;103174.94;5031968;28;20037;-73
2022/12/05 04:27:58;;;;;;;18.23;12.30;;;;;;;-2.80;95.16;103191.38;5032326;28;20155;-76
2022/12/05 04:30:34;;;;;;;19.83;13.95;;;;;;;-2.86;95.14;103179.25;5033278;28;20128;-73
2022/12/05 04:33:11;;;;;;;21.90;12.70;;;;;;;-2.82;95.16;103182.69;5032280;28;20492;-75
2022/12/05 04:35:42;;;;;;;22.40;11.77;;;;;;;-2.83;95.09;103186.19;5032079;28;20477;-72
2022/12/05 04:38:22;;;;;;;25.75;12.88;;;;;;;-2.91;95.75;103169.75;5032158;28;20142;-71
2022/12/05 04:41:01;;;;;;;20.00;12.18;;;;;;;-2.86;95.50;103176.66;5032826;28;20034;-73
2022/12/05 04:43:27;;;;;;;;;;;;;;;-2.82;96.44;103178.34;5033255;28;20033;-73
2022/12/05 04:45:56;;;;;;;19.90;11.68;;;;;;;-2.86;96.35;103161.00;5032239;28;19940;-73
2022/12/05 04:48:24;;;;;;;19.42;12.77;;;;;;;-2.74;95.56;103173.03;5032451;28;20033;-74
2022/12/05 04:50:52;;;;;;;21.52;13.93;;;;;;;-2.65;95.57;103179.88;5032312;28;20018;-74
2022/12/05 04:53:19;;;;;;;19.15;12.50;;;;;;;-2.68;95.45;103175.56;5032504;28;20053;-73
2022/12/05 04:55:49;;;;;;;21.48;12.65;;;;;;;-2.61;95.74;103176.34;5032698;28;20085;-75
2022/12/05 04:58:19;;;;;;;24.95;16.77;;;;;;;-2.55;95.52;103178.91;5032340;28;20057;-72
2022/12/05 05:00:54;;;;;;;25.73;13.85;;;;;;;-2.56;96.22;103172.81;5032115;28;20171;-73
2022/12/05 05:03:36;;;;;;;28.20;16.23;;;;;;;-2.52;95.84;103174.50;5031962;28;20042;-72
2022/12/05 05:06:02;;;;;;;18.50;12.02;;;;;;;-2.47;95.21;103171.81;5031944;28;20498;-73
2022/12/05 05:08:28;;;;;;;21.30;13.20;;;;;;;-2.51;95.19;103171.00;5031914;28;20025;-74
2022/12/05 05:10:59;;;;;;;26.65;15.27;;;;;;;-2.45;94.22;103179.63;5032563;28;20041;-76
2022/12/05 05:13:25;;;;;;;25.48;14.52;;;;;;;-2.67;94.96;103150.34;5037372;28;20029;-75
2022/12/05 05:15:50;;;;;;;22.50;13.60;;;;;;;-2.68;95.89;103172.94;5030433;28;20033;-77
2022/12/05 05:18:16;;;;;;;20.90;13.47;;;;;;;-2.66;96.22;103168.56;5031223;28;20489;-76
2022/12/05 05:20:42;;;;;;;23.77;15.13;;;;;;;-2.61;95.69;103173.72;5032733;28;20041;-76
2022/12/05 05:23:07;;;;;;;24.33;14.60;;;;;;;-2.62;95.13;103158.97;5035048;28;20034;-77
2022/12/05 05:25:33;;;;;;;47.73;16.30;;;;;;;-2.68;95.77;103164.25;5033494;28;20032;-76
2022/12/05 05:27:58;;;;;;;28.53;14.00;;;;;;;-2.84;95.04;103143.59;5032240;28;20116;-77
2022/12/05 05:30:26;;;;;;;26.90;14.70;;;;;;;-2.74;96.98;103167.81;5032127;28;20108;-78
2022/12/05 05:32:52;;;;;;;21.27;13.50;;;;;;;-2.69;96.60;103157.31;5031775;28;20052;-75
2022/12/05 05:35:19;;;;;;;29.33;14.00;;;;;;;-2.68;95.56;103164.25;5031788;28;20113;-74
2022/12/05 05:37:44;;;;;;;23.35;14.13;;;;;;;-2.74;96.14;103164.34;5032010;28;20136;-76
2022/12/05 05:40:19;;;;;;;25.00;14.73;;;;;;;-2.73;95.70;103164.31;5042051;28;20511;-74
2022/12/05 05:42:46;;;;;;;29.27;15.20;;;;;;;-2.74;96.06;103164.34;5037783;28;20032;-75
2022/12/05 05:45:13;;;;;;;25.38;14.48;;;;;;;-2.73;95.72;103166.94;5056402;28;20063;-73
2022/12/05 05:47:40;;;;;;;24.45;14.50;;;;;;;-2.75;96.11;103168.69;5059055;28;20039;-77
2022/12/05 05:50:21;;;;;;;25.33;14.30;;;;;;;-2.75;95.82;103188.69;5057332;28;20071;-78
2022/12/05 05:52:46;;;;;;;23.52;14.50;;;;;;;-2.74;96.19;103174.78;5056069;28;20315;-77
2022/12/05 05:55:31;;;;;;;25.53;14.73;;;;;;;-2.62;95.92;103185.03;5054839;28;20083;-78
2022/12/05 05:57:56;;;;;;;24.98;14.13;;;;;;;-2.67;95.59;103179.03;5036944;28;20488;-74
2022/12/05 06:00:22;;;;;;;23.67;15.30;;;;;;;-2.61;96.09;103187.63;5055246;28;20035;-74
2022/12/05 06:02:47;;;;;;;26.50;15.00;;;;;;;-2.63;95.32;103183.31;5054847;28;20033;-73
2022/12/05 06:05:13;;;;;;;28.53;16.27;;;;;;;-2.60;95.54;103180.72;5022056;28;20043;-75
2022/12/05 06:07:38;;;;;;;27.90;16.00;;;;;;;-2.59;95.35;103170.25;5035933;28;20021;-74
2022/12/05 06:10:04;;;;;;;32.37;15.77;;;;;;;-2.55;95.88;103176.28;5034564;28;20022;-76
2022/12/05 06:12:30;;;;;;;29.85;19.05;;;;;;;-2.48;95.20;103177.94;5034836;28;20056;-74
2022/12/05 06:14:55;;;;;;;43.40;24.83;;;;;;;-2.47;95.53;103174.44;5033836;28;20397;-74
2022/12/05 06:17:23;;;;;;;37.93;20.10;;;;;;;-2.43;95.28;103176.13;5033242;28;20053;-76
2022/12/05 06:19:49;;;;;;;29.13;14.95;;;;;;;-2.48;95.01;103177.94;5034810;28;20078;-79
2022/12/05 06:22:15;;;;;;;23.60;14.47;;;;;;;-2.58;95.18;103176.31;5017578;28;20124;-77
2022/12/05 06:24:40;;;;;;;26.63;16.03;;;;;;;-2.71;95.99;103185.16;5038469;28;20036;-74
2022/12/05 06:27:06;;;;;;;24.20;13.63;;;;;;;-2.80;96.32;103186.16;5035487;28;20110;-73
2022/12/05 06:29:33;;;;;;;22.40;14.93;;;;;;;-2.77;96.36;103180.91;5034837;28;20377;-73
2022/12/05 06:31:58;;;;;;;23.60;15.27;;;;;;;-2.79;96.44;103172.22;5017314;28;20028;-73
2022/12/05 06:34:24;;;;;;;29.83;16.23;;;;;;;-3.02;96.55;103137.72;5034765;28;20037;-74
2022/12/05 06:36:49;;;;;;;26.17;14.50;;;;;;;-2.83;96.33;103176.63;5034586;28;20044;-74
2022/12/05 06:39:15;;;;;;;28.67;16.40;;;;;;;-2.88;96.94;103159.31;5035006;28;20146;-74
2022/12/05 06:41:40;;;;;;;47.60;22.60;;;;;;;-2.81;96.18;103174.84;5016923;28;20048;-73
2022/12/05 06:44:06;;;;;;;53.07;24.83;;;;;;;-2.73;97.07;103176.50;5016248;28;20124;-74
2022/12/05 06:46:31;;;;;;;40.07;22.83;;;;;;;-2.68;97.07;103174.69;5034021;28;20025;-73
2022/12/05 06:49:01;;;;;;;24.03;15.83;;;;;;;-2.65;96.80;103180.72;5016619;28;20071;-74
2022/12/05 06:51:27;;;;;;;28.85;16.55;;;;;;;-2.74;96.76;103175.63;5033804;28;20049;-74
2022/12/05 06:53:52;;;;;;;22.70;17.20;;;;;;;-2.74;96.19;103173.03;5034513;28;20485;-75
2022/12/05 06:56:19;;;;;;;29.77;15.70;;;;;;;-2.78;97.27;103167.88;5036524;28;20175;-74
2022/12/05 06:58:47;;;;;;;28.75;15.77;;;;;;;-2.81;96.76;103161.81;5037985;28;20030;-74
2022/12/05 07:04:02;;;;;;;21.67;14.13;;;;;;;-3.03;96.17;103109.94;5034165;28;20029;-72
2022/12/05 07:06:28;;;;;;;28.85;15.35;;;;;;;-2.70;96.66;103160.81;5034069;28;20079;-74
2022/12/05 07:08:54;;;;;;;28.67;15.87;;;;;;;-2.65;97.04;103169.44;5033737;28;20404;-74
2022/12/05 07:11:20;;;;;;;32.20;17.20;;;;;;;-2.64;97.28;103165.94;5033683;28;20029;-74
2022/12/05 07:13:45;;;;;;;31.03;16.90;;;;;;;-2.64;96.83;103169.41;5034859;28;20048;-72
2022/12/05 07:16:11;;;;;;;30.20;15.70;;;;;;;-2.67;96.24;103166.00;5034866;28;20063;-73
2022/12/05 07:18:38;;;;;;;26.27;16.53;;;;;;;-2.66;96.76;103165.09;5033610;28;20041;-74
2022/12/05 07:21:07;;;;;;;25.77;14.55;;;;;;;-2.61;97.10;103184.16;5015687;28;20041;-73
2022/12/05 07:23:33;;;;;;;30.98;15.38;;;;;;;-2.61;97.12;103160.69;5033314;28;20037;-74
2022/12/05 07:25:59;;;;;;;29.40;18.70;;;;;;;-2.50;96.92;103175.34;5016052;28;20075;-75
2022/12/05 07:28:24;;;;;;;31.33;18.33;;;;;;;-2.53;96.08;103177.13;5032935;28;20033;-74
2022/12/05 07:31:02;;;;;;;26.20;16.40;;;;;;;-2.57;96.52;103183.28;5033179;28;20385;-75
2022/12/05 07:33:28;;;;;;;26.77;16.65;;;;;;;-2.61;97.35;103171.97;5033527;28;20115;-74
2022/12/05 07:36:01;;;;;;;24.33;17.03;;;;;;;-2.65;96.63;103177.25;5033467;28;20068;-74
2022/12/05 07:38:27;;;;;;;30.10;17.83;;;;;;;-2.59;97.69;103175.47;5033517;28;20029;-75
2022/12/05 07:40:53;;;;;;;30.57;18.33;;;;;;;-2.58;96.76;103178.94;5045547;28;20036;-75
2022/12/05 07:43:19;;;;;;;28.50;15.33;;;;;;;-2.57;97.39;103178.06;5052855;28;20288;-75
2022/12/05 07:45:44;;;;;;;30.27;17.73;;;;;;;-2.56;97.13;103177.16;5036678;28;20032;-73
2022/12/05 07:48:10;;;;;;;32.63;18.60;;;;;;;-2.61;97.41;103178.94;5034387;28;20112;-73
2022/12/05 07:50:36;;;;;;;28.23;16.60;;;;;;;-2.46;97.55;103177.91;5033307;28;20032;-76
2022/12/05 07:53:02;;;;;;;26.90;15.90;;;;;;;-2.42;97.01;103172.63;5033110;28;20080;-73
2022/12/05 07:55:27;;;;;;;29.03;17.93;;;;;;;-2.27;96.07;103188.09;5032922;28;20059;-75
2022/12/05 07:57:54;;;;;;;31.58;16.55;;;;;;;-2.26;96.46;103189.81;5015929;28;20029;-74
2022/12/05 08:00:20;;;;;;;27.23;15.53;;;;;;;-2.22;96.05;103183.66;5015984;28;20029;-74
2022/12/05 08:02:46;;;;;;;29.70;16.27;;;;;;;-2.22;95.92;103180.19;5032494;28;20037;-72
2022/12/05 08:05:12;;;;;;;33.13;17.40;;;;;;;-2.28;95.72;103181.13;5033829;28;20029;-75
2022/12/05 08:07:37;;;;;;;28.53;15.83;;;;;;;-2.24;95.89;103184.56;5014807;28;20065;-73
2022/12/05 08:10:04;;;;;;;27.83;16.63;;;;;;;-2.24;96.35;103176.72;5032701;28;20041;-74
2022/12/05 08:12:29;;;;;;;30.02;17.33;;;;;;;-2.24;96.30;103184.56;5032521;28;20038;-74
2022/12/05 08:14:55;;;;;;;33.00;17.40;;;;;;;-2.26;95.91;103189.81;5032576;28;20040;-73
2022/12/05 08:17:29;;;;;;;25.60;15.97;;;;;;;-2.22;95.95;103188.88;5032942;28;20057;-76
2022/12/05 08:19:56;;;;;;;24.65;16.95;;;;;;;-2.17;95.90;103187.94;5032833;28;20477;-75
2022/12/05 08:22:21;;;;;;;30.43;16.37;;;;;;;-2.20;95.68;103179.28;5014527;28;20032;-75
2022/12/05 08:24:49;;;;;;;28.37;15.77;;;;;;;-2.13;95.29;103194.84;5014391;28;20420;-75
2022/12/05 08:27:15;;;;;;;32.30;16.90;;;;;;;-2.34;95.52;103149.03;5032432;28;20036;-75
2022/12/05 08:29:40;;;;;;;31.13;17.13;;;;;;;-2.29;95.10;103157.66;5032099;28;20033;-74
2022/12/05 08:32:06;;;;;;;31.87;17.87;;;;;;;-2.09;95.90;103181.72;5032185;28;20063;-74
2022/12/05 08:34:36;;;;;;;34.28;18.92;;;;;;;-2.06;95.50;103180.81;5032155;28;20025;-74
2022/12/05 08:37:02;;;;;;;29.17;15.90;;;;;;;-2.14;95.07;103172.22;5032268;28;20036;-74
2022/12/05 08:39:27;;;;;;;27.93;15.37;;;;;;;-2.16;95.00;103174.88;5031832;28;20264;-76
2022/12/05 08:41:53;;;;;;;26.77;15.27;;;;;;;-2.12;95.01;103170.47;5014438;28;20080;-74
2022/12/05 08:44:19;;;;;;;27.47;16.87;;;;;;;-2.01;95.26;103184.25;5032127;28;20021;-75
2022/12/05 08:46:49;;;;;;;26.83;15.43;;;;;;;-1.99;94.40;103182.47;5032474;28;20072;-73
2022/12/05 08:49:16;;;;;;;25.70;15.65;;;;;;;-2.14;94.66;103167.88;5032078;28;20120;-75
2022/12/05 08:51:48;;;;;;;31.90;16.15;;;;;;;-2.14;94.74;103177.47;5032406;28;20064;-75
2022/12/05 08:54:15;;;;;;;29.95;17.05;;;;;;;-2.20;95.10;103166.22;5032101;28;20029;-74
2022/12/05 08:56:40;;;;;;;26.52;16.60;;;;;;;-2.21;95.30;103171.47;5032127;28;20029;-74
2022/12/05 08:59:31;;;;;;;24.98;14.30;;;;;;;-2.24;95.26;103164.53;5032217;28;20060;-76
2022/12/05 09:01:56;;;;;;;24.73;14.93;;;;;;;-2.20;95.38;103168.84;5033048;28;20484;-75
2022/12/05 09:04:22;;;;;;;27.30;15.87;;;;;;;-2.17;94.73;103161.84;5033226;28;20027;-74
2022/12/05 09:06:50;;;;;;;29.40;15.40;;;;;;;-2.17;95.51;103159.22;5000361;28;20465;-73
2022/12/05 09:09:16;;;;;;;27.00;15.80;;;;;;;-2.22;95.34;103144.50;5033672;28;20041;-73
2022/12/05 09:11:49;;;;;;;27.53;15.53;;;;;;;-2.14;95.95;103147.00;5033607;28;20029;-74
2022/12/05 09:14:16;;;;;;;27.20;16.45;;;;;;;-2.08;95.14;103156.47;5035330;28;20083;-75
2022/12/05 09:16:44;;;;;;;26.65;15.88;;;;;;;-2.08;95.71;103156.47;5036754;28;20470;-75
2022/12/05 09:19:13;;;;;;;24.40;15.02;;;;;;;-2.04;95.42;103159.00;5036825;28;20144;-73
2022/12/05 09:21:40;;;;;;;25.35;14.23;;;;;;;-2.07;95.08;103147.75;5037783;28;20034;-75
2022/12/05 09:24:06;;;;;;;23.88;15.27;;;;;;;-2.03;94.64;103154.66;5038710;28;20036;-75
2022/12/05 09:26:31;;;;;;;28.38;15.63;;;;;;;-2.03;95.48;103157.25;5021081;28;20465;-74
2022/12/05 09:28:57;;;;;;;28.33;14.47;;;;;;;-1.99;94.92;103166.81;5038604;28;20041;-75
2022/12/05 09:31:25;;;;;;;26.10;15.07;;;;;;;-1.98;94.22;103168.53;5041261;28;20052;-74
2022/12/05 09:33:51;;;;;;;23.00;14.98;;;;;;;-2.12;94.79;103162.63;5046787;28;20029;-74
2022/12/05 09:36:21;;;;;;;31.00;15.52;;;;;;;-2.08;94.94;103167.78;5047080;28;20033;-73
2022/12/05 09:38:47;;;;;;;21.00;14.93;;;;;;;-2.15;94.83;103160.06;5043934;28;20040;-74
2022/12/05 09:44:49;;;;;;;23.38;14.43;;;;;;;-2.11;95.35;103159.13;5045538;28;20048;-74
2022/12/05 09:47:26;;;;;;;24.27;14.75;;;;;;;-2.29;95.47;103128.97;5037936;28;20052;-74
2022/12/05 09:50:13;;;;;;;26.10;14.32;;;;;;;-2.13;95.68;103155.69;5035426;28;20112;-74
2022/12/05 09:53:02;;;;;;;26.33;14.75;;;;;;;-2.20;95.66;103153.16;5035629;28;20113;-73
2022/12/05 09:55:56;;;;;;;27.80;15.23;;;;;;;-2.20;95.80;103157.53;5017385;28;20469;-73
2022/12/05 09:58:27;;;;;;;30.00;15.02;;;;;;;-2.27;95.81;103141.09;5034887;28;20256;-74
2022/12/05 10:01:01;;;;;;;23.52;14.57;;;;;;;-2.13;96.11;103143.50;5035289;28;20096;-74
2022/12/05 10:04:05;;;;;;;24.33;14.93;;;;;;;-2.08;96.03;103139.06;5034824;28;20048;-76
2022/12/05 10:06:54;;;;;;;27.35;16.10;;;;;;;-2.03;95.41;103137.22;5017632;28;20136;-75
2022/12/05 10:09:41;;;;;;;26.15;15.45;;;;;;;-2.04;95.92;103138.13;5034306;28;20040;-78
2022/12/05 10:12:33;;;;;;;25.77;16.42;;;;;;;-2.05;94.91;103135.53;5034817;28;20277;-77
2022/12/05 10:15:26;;;;;;;25.77;14.23;;;;;;;-2.08;95.69;103125.13;5034617;28;20075;-75
2022/12/05 10:18:31;;;;;;;22.17;14.63;;;;;;;-2.02;95.75;103130.28;5016715;28;20765;-74
2022/12/05 10:21:11;;;;;;;25.30;15.07;;;;;;;-1.96;95.06;103112.78;5017677;28;20171;-72
2022/12/05 10:23:45;;;;;;;32.08;16.85;;;;;;;-1.96;95.08;103111.91;5037463;28;20135;-73
2022/12/05 10:26:14;;;;;;;25.95;14.93;;;;;;;-2.03;94.62;103110.25;5016509;28;20056;-76
2022/12/05 10:29:10;;;;;;;25.95;15.05;;;;;;;-1.99;94.92;103105.00;5035046;28;20075;-73
2022/12/05 10:31:37;;;;;;;29.77;15.45;;;;;;;-1.97;95.09;103108.44;5034373;28;20128;-75
2022/12/05 10:34:11;;;;;;;25.95;15.02;;;;;;;-2.13;95.05;103079.97;5037662;28;20025;-73
2022/12/05 10:36:36;;;;;;;26.25;16.23;;;;;;;-1.98;94.61;103101.50;5035405;28;20505;-75
2022/12/05 10:39:02;;;;;;;26.50;15.13;;;;;;;-2.04;95.03;103093.72;5034497;28;20072;-73
2022/12/05 10:41:28;;;;;;;23.63;15.10;;;;;;;-2.05;95.57;103091.16;5034170;28;20079;-75
2022/12/05 10:43:56;;;;;;;26.07;16.03;;;;;;;-2.10;95.18;103088.63;5033975;28;20043;-73
2022/12/05 10:46:22;;;;;;;27.63;16.52;;;;;;;-2.09;95.67;103086.88;5034359;28;20029;-74
2022/12/05 10:48:47;;;;;;;24.87;15.60;;;;;;;-2.06;95.47;103085.06;5034326;28;20025;-74
2022/12/05 10:51:26;;;;;;;25.73;14.87;;;;;;;-1.95;95.96;103097.97;5017005;28;20033;-74
2022/12/05 10:53:53;;;;;;;28.10;15.75;;;;;;;-1.87;95.27;103073.44;5034638;28;20029;-74
2022/12/05 10:56:37;;;;;;;32.90;17.13;;;;;;;-1.76;95.29;103081.06;5034521;28;20029;-74
2022/12/05 10:59:04;;;;;;;33.50;18.20;;;;;;;-1.73;94.74;103085.41;5034108;28;20814;-74
2022/12/05 11:01:30;;;;;;;32.27;17.30;;;;;;;-1.71;94.38;103079.25;5033937;28;20322;-75
2022/12/05 11:04:04;;;;;;;32.50;17.13;;;;;;;-1.73;94.23;103070.59;5016561;28;20288;-76
2022/12/05 11:06:31;;;;;;;31.33;18.03;;;;;;;-1.76;94.30;103074.97;5033886;28;20061;-73
2022/12/05 11:09:18;;;;;;;31.20;16.60;;;;;;;-1.74;94.68;103067.97;5035441;28;20355;-76
2022/12/05 11:11:59;;;;;;;21.83;14.20;;;;;;;-1.77;94.63;103058.44;5033910;28;20255;-75
2022/12/05 11:14:26;;;;;;;24.57;15.00;;;;;;;-1.75;94.15;103072.34;5033542;28;20290;-74
2022/12/05 11:16:55;;;;;;;25.03;14.73;;;;;;;-1.78;94.19;103075.00;5033666;28;20260;-75
2022/12/05 11:19:21;;;;;;;27.93;14.30;;;;;;;-1.72;93.96;103074.94;5033305;28;20280;-73
2022/12/05 11:21:48;;;;;;;29.50;16.50;;;;;;;-1.75;94.16;103074.97;5033432;28;20275;-76
2022/12/05 11:24:33;;;;;;;29.43;16.70;;;;;;;-1.75;94.11;103061.03;5033558;28;20034;-75
2022/12/05 11:27:17;;;;;;;35.67;18.63;;;;;;;-1.92;94.38;103037.84;5033595;28;20253;-76
2022/12/05 11:29:53;;;;;;;29.87;18.27;;;;;;;-1.74;94.99;103062.75;5033186;28;20248;-73
2022/12/05 11:32:24;;;;;;;29.00;16.60;;;;;;;-1.73;95.12;103048.84;5033102;28;20256;-76
2022/12/05 11:35:17;;;;;;;38.73;20.63;;;;;;;-1.77;94.70;103052.38;5033755;28;20272;-74
2022/12/05 11:37:47;;;;;;;29.97;16.77;;;;;;;-1.89;95.36;103038.66;5033258;28;20264;-75
2022/12/05 11:40:32;;;;;;;33.77;18.37;;;;;;;-1.87;94.82;103044.69;5015758;28;20359;-74
2022/12/05 11:43:33;;;;;;;33.73;17.63;;;;;;;-1.85;94.46;103049.91;5032983;28;20434;-74